createdAt,value
2019-03-25T00:00:44.116Z,4.75
2019-03-25T00:01:44.029Z,4.75
2019-03-25T00:02:43.956Z,4.67
2019-03-25T00:03:43.855Z,4.86
2019-03-25T00:04:43.778Z,4.85
2019-03-25T00:05:43.695Z,4.75
2019-03-25T00:06:43.604Z,4.84
2019-03-25T00:07:43.516Z,4.85
2019-03-25T00:08:43.430Z,4.70
2019-03-25T00:09:43.359Z,4.78
2019-03-25T00:10:43.268Z,4.69
2019-03-25T00:11:43.182Z,4.70
2019-03-25T00:12:43.092Z,4.77
2019-03-25T00:13:43.009Z,4.72
2019-03-25T00:14:42.917Z,4.62
2019-03-25T00:15:42.833Z,4.66
2019-03-25T00:16:42.755Z,4.59
2019-03-25T00:17:42.667Z,4.67
2019-03-25T00:18:42.580Z,4.65
2019-03-25T00:19:42.493Z,4.62
2019-03-25T00:20:42.407Z,4.59
2019-03-25T00:21:42.319Z,4.67
2019-03-25T00:22:42.257Z,4.62
2019-03-25T00:23:42.156Z,4.55
2019-03-25T00:24:42.069Z,4.63
2019-03-25T00:25:41.984Z,4.62
2019-03-25T00:26:41.894Z,4.69
2019-03-25T00:27:41.807Z,4.65
2019-03-25T00:28:41.719Z,4.65
2019-03-25T00:29:41.648Z,4.70
2019-03-25T00:30:41.560Z,4.72
2019-03-25T00:31:41.469Z,4.66
2019-03-25T00:32:41.384Z,4.70
2019-03-25T00:33:41.307Z,4.58
2019-03-25T00:34:41.207Z,4.70
2019-03-25T00:35:41.121Z,4.63
2019-03-25T00:36:41.045Z,4.72
2019-03-25T00:37:40.958Z,4.70
2019-03-25T00:38:40.871Z,4.55
2019-03-25T00:39:40.783Z,4.63
2019-03-25T00:40:40.695Z,4.63
2019-03-25T00:41:40.620Z,4.60
2019-03-25T00:42:40.533Z,4.60
2019-03-25T00:43:40.448Z,4.60
2019-03-25T00:44:40.359Z,4.55
2019-03-25T00:45:40.277Z,4.65
2019-03-25T00:46:40.199Z,4.69
2019-03-25T00:47:40.097Z,4.65
2019-03-25T00:48:40.034Z,4.70
2019-03-25T00:49:39.934Z,4.75
2019-03-25T00:50:39.847Z,4.73
2019-03-25T00:51:39.761Z,4.75
2019-03-25T00:52:39.671Z,4.72
2019-03-25T00:53:39.597Z,4.75
2019-03-25T00:54:49.645Z,4.84
2019-03-25T00:55:39.421Z,4.88
2019-03-25T00:56:39.335Z,4.85
2019-03-25T00:57:39.247Z,4.88
2019-03-25T00:58:39.163Z,4.88
2019-03-25T00:59:39.085Z,4.80
2019-03-25T01:00:38.997Z,4.85
2019-03-25T01:01:38.916Z,4.82
2019-03-25T01:02:38.823Z,4.92
2019-03-25T01:03:38.736Z,4.91
2019-03-25T01:04:38.652Z,4.80
2019-03-25T01:05:38.590Z,4.86
2019-03-25T01:06:38.486Z,4.85
2019-03-25T01:07:38.398Z,4.92
2019-03-25T01:08:38.315Z,4.82
2019-03-25T01:09:38.227Z,4.86
2019-03-25T01:10:38.137Z,4.88
2019-03-25T01:11:48.431Z,4.80
2019-03-25T01:12:37.988Z,4.77
2019-03-25T01:13:37.887Z,4.75
2019-03-25T01:14:37.799Z,4.75
2019-03-25T01:15:37.717Z,4.78
2019-03-25T01:16:37.626Z,4.73
2019-03-25T01:17:37.549Z,4.84
2019-03-25T01:18:37.464Z,4.73
2019-03-25T01:19:37.387Z,4.73
2019-03-25T01:20:37.288Z,4.75
2019-03-25T01:21:37.200Z,4.70
2019-03-25T01:22:37.122Z,4.72
2019-03-25T01:23:37.037Z,4.75
2019-03-25T01:24:36.951Z,4.73
2019-03-25T01:25:36.868Z,4.75
2019-03-25T01:26:36.775Z,4.70
2019-03-25T01:27:36.689Z,4.67
2019-03-25T01:28:36.601Z,4.62
2019-03-25T01:29:36.525Z,4.59
2019-03-25T01:30:36.441Z,4.58
2019-03-25T01:31:36.353Z,4.55
2019-03-25T01:32:36.265Z,4.51
2019-03-25T01:33:36.176Z,4.48
2019-03-25T01:34:36.092Z,4.42
2019-03-25T01:35:36.002Z,4.48
2019-03-25T01:36:35.926Z,4.51
2019-03-25T01:37:35.840Z,4.45
2019-03-25T01:38:35.751Z,4.47
2019-03-25T01:39:35.666Z,4.48
2019-03-25T01:40:35.577Z,4.50
2019-03-25T01:41:35.492Z,4.54
2019-03-25T01:42:35.416Z,4.51
2019-03-25T01:43:35.333Z,4.51
2019-03-25T01:44:35.244Z,4.47
2019-03-25T01:45:35.152Z,4.48
2019-03-25T01:46:35.067Z,4.37
2019-03-25T01:47:34.978Z,4.45
2019-03-25T01:48:34.891Z,4.48
2019-03-25T01:49:34.817Z,4.47
2019-03-25T01:50:34.727Z,4.47
2019-03-25T01:51:34.643Z,4.47
2019-03-25T01:52:34.553Z,4.48
2019-03-25T01:53:34.466Z,4.42
2019-03-25T01:54:34.379Z,4.50
2019-03-25T01:55:34.302Z,4.42
2019-03-25T01:56:34.216Z,4.42
2019-03-25T01:57:34.129Z,4.37
2019-03-25T01:58:34.047Z,4.37
2019-03-25T01:59:33.954Z,4.29
2019-03-25T02:00:33.868Z,4.24
2019-03-25T02:01:33.779Z,4.30
2019-03-25T02:02:33.704Z,4.27
2019-03-25T02:03:33.617Z,4.27
2019-03-25T02:04:33.547Z,4.33
2019-03-25T02:05:33.444Z,4.24
2019-03-25T02:06:33.354Z,4.22
2019-03-25T02:07:33.268Z,4.24
2019-03-25T02:08:33.180Z,4.24
2019-03-25T02:09:33.105Z,4.23
2019-03-25T02:10:33.018Z,4.27
2019-03-25T02:11:32.959Z,4.30
2019-03-25T02:12:32.844Z,4.23
2019-03-25T02:13:32.756Z,4.29
2019-03-25T02:14:32.669Z,4.23
2019-03-25T02:15:32.580Z,4.22
2019-03-25T02:16:32.510Z,4.20
2019-03-25T02:17:32.418Z,4.22
2019-03-25T02:18:32.344Z,4.27
2019-03-25T02:19:32.248Z,4.18
2019-03-25T02:20:32.156Z,4.27
2019-03-25T02:21:32.070Z,4.22
2019-03-25T02:22:32.036Z,4.29
2019-03-25T02:23:31.907Z,4.22
2019-03-25T02:24:31.808Z,4.23
2019-03-25T02:25:31.747Z,4.29
2019-03-25T02:26:31.645Z,4.26
2019-03-25T02:27:31.559Z,4.22
2019-03-25T02:28:31.472Z,4.22
2019-03-25T02:29:31.384Z,4.24
2019-03-25T02:30:31.296Z,4.15
2019-03-25T02:31:31.209Z,4.20
2019-03-25T02:32:31.143Z,4.11
2019-03-25T02:33:31.053Z,4.12
2019-03-25T02:34:30.959Z,4.26
2019-03-25T02:35:30.875Z,4.14
2019-03-25T02:36:30.792Z,4.23
2019-03-25T02:37:30.696Z,4.14
2019-03-25T02:38:30.613Z,4.24
2019-03-25T02:39:30.530Z,4.12
2019-03-25T02:40:30.453Z,4.12
2019-03-25T02:41:30.359Z,4.11
2019-03-25T02:42:30.273Z,4.09
2019-03-25T02:43:30.185Z,4.02
2019-03-25T02:44:30.099Z,4.11
2019-03-25T02:45:30.009Z,4.08
2019-03-25T02:46:29.924Z,4.09
2019-03-25T02:47:29.840Z,3.98
2019-03-25T02:48:29.759Z,4.08
2019-03-25T02:49:29.678Z,4.04
2019-03-25T02:50:29.586Z,3.96
2019-03-25T02:51:29.501Z,4.06
2019-03-25T02:52:29.411Z,4.09
2019-03-25T02:53:29.323Z,3.96
2019-03-25T02:54:29.236Z,4.04
2019-03-25T02:55:40.503Z,4.00
2019-03-25T02:56:29.075Z,4.05
2019-03-25T02:57:28.986Z,3.97
2019-03-25T02:58:28.900Z,3.97
2019-03-25T02:59:28.810Z,3.94
2019-03-25T03:00:28.725Z,3.91
2019-03-25T03:01:28.653Z,3.86
2019-03-25T03:02:28.555Z,3.90
2019-03-25T03:03:28.463Z,3.94
2019-03-25T03:04:28.389Z,4.02
2019-03-25T03:05:28.301Z,3.97
2019-03-25T03:06:28.214Z,3.96
2019-03-25T03:07:28.125Z,4.05
2019-03-25T03:08:28.037Z,3.94
2019-03-25T03:09:27.955Z,3.91
2019-03-25T03:10:27.864Z,4.02
2019-03-25T03:11:27.776Z,4.14
2019-03-25T03:12:27.687Z,4.06
2019-03-25T03:13:27.627Z,4.11
2019-03-25T03:14:27.527Z,4.06
2019-03-25T03:15:27.439Z,4.18
2019-03-25T03:16:27.356Z,4.23
2019-03-25T03:17:27.265Z,4.16
2019-03-25T03:18:27.181Z,4.23
2019-03-25T03:19:27.088Z,4.22
2019-03-25T03:20:27.002Z,4.22
2019-03-25T03:21:26.927Z,4.30
2019-03-25T03:22:26.840Z,4.26
2019-03-25T03:23:26.755Z,4.18
2019-03-25T03:24:26.665Z,4.18
2019-03-25T03:25:26.578Z,4.18
2019-03-25T03:26:26.490Z,4.22
2019-03-25T03:27:29.774Z,4.12
2019-03-25T03:28:26.330Z,4.20
2019-03-25T03:29:26.243Z,4.15
2019-03-25T03:30:26.257Z,4.20
2019-03-25T03:31:26.070Z,4.12
2019-03-25T03:32:25.979Z,4.11
2019-03-25T03:33:25.891Z,4.16
2019-03-25T03:34:25.890Z,4.24
2019-03-25T03:35:25.743Z,4.15
2019-03-25T03:36:25.628Z,4.18
2019-03-25T03:37:25.541Z,4.18
2019-03-25T03:38:25.465Z,4.16
2019-03-25T03:39:25.451Z,4.11
2019-03-25T03:40:25.297Z,4.14
2019-03-25T03:41:25.213Z,4.23
2019-03-25T03:42:25.118Z,4.09
2019-03-25T03:43:25.030Z,4.12
2019-03-25T03:44:24.944Z,4.09
2019-03-25T03:45:24.868Z,4.06
2019-03-25T03:46:24.781Z,4.11
2019-03-25T03:47:24.699Z,4.08
2019-03-25T03:48:24.607Z,4.09
2019-03-25T03:49:24.566Z,4.16
2019-03-25T03:50:24.429Z,4.15
2019-03-25T03:51:24.342Z,4.14
2019-03-25T03:52:24.258Z,4.14
2019-03-25T03:53:24.169Z,4.15
2019-03-25T03:54:24.100Z,3.96
2019-03-25T03:55:24.011Z,4.08
2019-03-25T03:56:23.922Z,4.11
2019-03-25T03:57:23.832Z,4.00
2019-03-25T03:58:23.742Z,4.06
2019-03-25T03:59:23.659Z,4.06
2019-03-25T04:00:23.569Z,4.06
2019-03-25T04:01:23.482Z,3.96
2019-03-25T04:02:23.394Z,3.96
2019-03-25T04:03:23.308Z,4.08
2019-03-25T04:04:23.231Z,4.11
2019-03-25T04:05:23.143Z,4.11
2019-03-25T04:06:23.059Z,4.05
2019-03-25T04:07:22.968Z,4.11
2019-03-25T04:08:22.882Z,4.11
2019-03-25T04:09:22.795Z,4.22
2019-03-25T04:10:22.707Z,4.18
2019-03-25T04:11:22.618Z,4.18
2019-03-25T04:12:22.543Z,4.09
2019-03-25T04:13:22.446Z,4.18
2019-03-25T04:14:22.369Z,4.26
2019-03-25T04:15:22.282Z,4.27
2019-03-25T04:16:22.194Z,4.26
2019-03-25T04:17:22.109Z,4.09
2019-03-25T04:18:22.019Z,4.24
2019-03-25T04:19:21.953Z,4.26
2019-03-25T04:20:21.846Z,4.23
2019-03-25T04:21:21.764Z,4.27
2019-03-25T04:22:21.677Z,4.23
2019-03-25T04:23:21.596Z,4.27
2019-03-25T04:24:21.509Z,4.30
2019-03-25T04:25:21.424Z,4.33
2019-03-25T04:26:28.497Z,4.37
2019-03-25T04:27:21.246Z,4.44
2019-03-25T04:28:21.158Z,4.51
2019-03-25T04:29:21.072Z,4.45
2019-03-25T04:30:20.988Z,4.37
2019-03-25T04:31:20.899Z,4.40
2019-03-25T04:32:20.826Z,4.45
2019-03-25T04:33:20.738Z,4.42
2019-03-25T04:34:20.662Z,4.48
2019-03-25T04:35:20.562Z,4.47
2019-03-25T04:36:20.472Z,4.54
2019-03-25T04:37:20.387Z,4.50
2019-03-25T04:38:20.297Z,4.59
2019-03-25T04:39:20.211Z,4.63
2019-03-25T04:40:20.128Z,4.55
2019-03-25T04:41:20.048Z,4.59
2019-03-25T04:42:19.961Z,4.62
2019-03-25T04:43:19.876Z,4.60
2019-03-25T04:44:19.785Z,4.60
2019-03-25T04:45:19.698Z,4.65
2019-03-25T04:46:19.611Z,4.69
2019-03-25T04:47:19.529Z,4.63
2019-03-25T04:48:19.442Z,4.63
2019-03-25T04:49:19.402Z,4.60
2019-03-25T04:50:19.274Z,4.60
2019-03-25T04:51:19.186Z,4.67
2019-03-25T04:52:19.099Z,4.73
2019-03-25T04:53:19.011Z,4.72
2019-03-25T04:54:18.923Z,4.84
2019-03-25T04:55:18.837Z,4.82
2019-03-25T04:56:18.750Z,4.75
2019-03-25T04:57:18.676Z,4.78
2019-03-25T04:58:18.588Z,4.82
2019-03-25T04:59:18.500Z,4.77
2019-03-25T05:00:18.419Z,4.78
2019-03-25T05:01:18.324Z,4.85
2019-03-25T05:02:18.237Z,4.92
2019-03-25T05:03:18.150Z,4.84
2019-03-25T05:04:18.064Z,4.88
2019-03-25T05:05:17.976Z,4.94
2019-03-25T05:06:17.900Z,4.80
2019-03-25T05:07:17.816Z,4.88
2019-03-25T05:08:17.725Z,4.82
2019-03-25T05:09:17.638Z,4.91
2019-03-25T05:10:17.551Z,4.85
2019-03-25T05:11:17.464Z,4.86
2019-03-25T05:12:17.376Z,4.85
2019-03-25T05:13:17.300Z,4.88
2019-03-25T05:14:17.214Z,4.78
2019-03-25T05:15:17.138Z,4.65
2019-03-25T05:16:18.642Z,4.85
2019-03-25T05:17:16.951Z,4.85
2019-03-25T05:18:16.864Z,4.82
2019-03-25T05:19:16.780Z,4.78
2019-03-25T05:20:16.690Z,4.75
2019-03-25T05:21:16.602Z,4.73
2019-03-25T05:22:16.528Z,4.77
2019-03-25T05:23:16.440Z,4.77
2019-03-25T05:24:16.351Z,4.70
2019-03-25T05:25:16.268Z,4.78
2019-03-25T05:26:16.177Z,4.77
2019-03-25T05:27:16.090Z,4.75
2019-03-25T05:28:16.002Z,4.78
2019-03-25T05:29:15.923Z,4.85
2019-03-25T05:30:15.840Z,4.82
2019-03-25T05:31:15.752Z,4.85
2019-03-25T05:32:15.666Z,4.86
2019-03-25T05:33:15.592Z,4.85
2019-03-25T05:34:15.492Z,4.85
2019-03-25T05:35:15.407Z,4.99
2019-03-25T05:36:15.320Z,4.92
2019-03-25T05:37:15.243Z,4.91
2019-03-25T05:38:15.153Z,4.97
2019-03-25T05:39:15.067Z,5.02
2019-03-25T05:40:14.991Z,4.89
2019-03-25T05:41:14.891Z,4.86
2019-03-25T05:42:14.804Z,4.91
2019-03-25T05:43:14.724Z,4.89
2019-03-25T05:44:14.632Z,4.88
2019-03-25T05:45:14.556Z,4.91
2019-03-25T05:46:14.468Z,4.88
2019-03-25T05:47:14.381Z,4.80
2019-03-25T05:48:14.293Z,4.77
2019-03-25T05:49:14.205Z,4.63
2019-03-25T05:50:14.118Z,4.45
2019-03-25T05:51:14.030Z,4.41
2019-03-25T05:52:13.955Z,4.24
2019-03-25T05:53:13.869Z,4.26
2019-03-25T05:54:13.780Z,4.36
2019-03-25T05:55:13.693Z,4.23
2019-03-25T05:56:13.618Z,4.15
2019-03-25T05:57:13.518Z,4.23
2019-03-25T05:58:13.431Z,4.34
2019-03-25T05:59:13.346Z,4.24
2019-03-25T06:00:13.270Z,4.12
2019-03-25T06:01:13.181Z,4.36
2019-03-25T06:02:13.095Z,4.26
2019-03-25T06:03:13.006Z,4.16
2019-03-25T06:04:12.922Z,4.32
2019-03-25T06:05:12.834Z,4.22
2019-03-25T06:06:12.745Z,4.09
2019-03-25T06:07:12.656Z,4.11
2019-03-25T06:08:12.570Z,4.12
2019-03-25T06:09:12.495Z,4.09
2019-03-25T06:10:12.410Z,4.04
2019-03-25T06:11:12.320Z,3.96
2019-03-25T06:12:12.233Z,3.97
2019-03-25T06:13:12.148Z,4.05
2019-03-25T06:14:12.057Z,4.02
2019-03-25T06:15:11.970Z,3.90
2019-03-25T06:16:11.882Z,3.96
2019-03-25T06:17:11.795Z,3.88
2019-03-25T06:18:11.722Z,3.93
2019-03-25T06:19:11.633Z,3.93
2019-03-25T06:20:11.546Z,3.90
2019-03-25T06:21:11.459Z,3.86
2019-03-25T06:22:11.371Z,3.79
2019-03-25T06:23:11.284Z,3.72
2019-03-25T06:24:11.207Z,3.66
2019-03-25T06:25:11.109Z,3.69
2019-03-25T06:26:11.022Z,3.68
2019-03-25T06:27:14.476Z,3.57
2019-03-25T06:28:10.847Z,3.57
2019-03-25T06:29:10.760Z,3.61
2019-03-25T06:30:10.686Z,3.61
2019-03-25T06:31:10.598Z,3.60
2019-03-25T06:32:10.510Z,3.42
2019-03-25T06:33:12.701Z,3.48
2019-03-25T06:34:10.334Z,3.42
2019-03-25T06:35:10.248Z,3.47
2019-03-25T06:36:10.162Z,3.43
2019-03-25T06:37:10.073Z,3.48
2019-03-25T06:38:10.002Z,3.45
2019-03-25T06:39:09.898Z,3.36
2019-03-25T06:40:09.811Z,3.26
2019-03-25T06:41:09.724Z,3.28
2019-03-25T06:42:09.635Z,3.24
2019-03-25T06:43:09.560Z,3.29
2019-03-25T06:44:09.461Z,3.24
2019-03-25T06:45:09.380Z,3.20
2019-03-25T06:46:09.299Z,3.20
2019-03-25T06:47:09.212Z,3.18
2019-03-25T06:48:09.125Z,3.18
2019-03-25T06:49:09.036Z,3.10
2019-03-25T06:50:08.949Z,3.13
2019-03-25T06:51:08.861Z,3.06
2019-03-25T06:52:08.776Z,3.00
2019-03-25T06:53:08.686Z,2.92
2019-03-25T06:54:08.600Z,2.92
2019-03-25T06:55:08.511Z,2.95
2019-03-25T06:56:08.425Z,2.82
2019-03-25T06:57:08.352Z,2.82
2019-03-25T06:58:08.250Z,2.89
2019-03-25T06:59:08.164Z,2.79
2019-03-25T07:00:08.077Z,2.82
2019-03-25T07:01:07.988Z,2.79
2019-03-25T07:02:07.903Z,2.84
2019-03-25T07:03:07.812Z,2.74
2019-03-25T07:04:07.726Z,2.77
2019-03-25T07:05:07.642Z,2.64
2019-03-25T07:06:07.551Z,2.77
2019-03-25T07:07:07.462Z,2.64
2019-03-25T07:08:07.377Z,2.66
2019-03-25T07:09:07.289Z,2.79
2019-03-25T07:10:07.204Z,2.89
2019-03-25T07:11:07.118Z,2.95
2019-03-25T07:12:07.026Z,2.87
2019-03-25T07:13:06.941Z,2.92
2019-03-25T07:14:06.852Z,2.96
2019-03-25T07:15:06.766Z,2.99
2019-03-25T07:16:06.678Z,3.08
2019-03-25T07:17:06.589Z,3.13
2019-03-25T07:18:06.504Z,3.11
2019-03-25T07:19:06.414Z,3.11
2019-03-25T07:20:06.333Z,3.10
2019-03-25T07:21:06.239Z,3.21
2019-03-25T07:22:06.154Z,3.20
2019-03-25T07:23:06.065Z,3.26
2019-03-25T07:24:05.984Z,3.23
2019-03-25T07:25:05.892Z,3.24
2019-03-25T07:26:05.814Z,3.35
2019-03-25T07:27:05.720Z,3.48
2019-03-25T07:28:05.640Z,3.48
2019-03-25T07:29:05.553Z,3.48
2019-03-25T07:30:05.478Z,3.52
2019-03-25T07:31:05.379Z,3.48
2019-03-25T07:32:05.290Z,3.62
2019-03-25T07:33:05.206Z,3.57
2019-03-25T07:34:05.116Z,3.60
2019-03-25T07:35:05.029Z,3.61
2019-03-25T07:36:04.941Z,3.62
2019-03-25T07:37:04.855Z,3.62
2019-03-25T07:38:04.767Z,3.72
2019-03-25T07:39:04.684Z,3.75
2019-03-25T07:40:04.592Z,3.78
2019-03-25T07:41:04.507Z,3.94
2019-03-25T07:42:04.417Z,3.98
2019-03-25T07:43:04.330Z,4.00
2019-03-25T07:44:04.244Z,3.91
2019-03-25T07:45:04.155Z,3.98
2019-03-25T07:46:04.068Z,3.98
2019-03-25T07:47:03.980Z,4.02
2019-03-25T07:48:04.268Z,4.12
2019-03-25T07:49:03.831Z,4.04
2019-03-25T07:50:03.731Z,3.93
2019-03-25T07:51:03.645Z,3.96
2019-03-25T07:52:03.560Z,4.02
2019-03-25T07:53:03.474Z,3.93
2019-03-25T07:54:03.434Z,4.00
2019-03-25T07:55:03.294Z,4.15
2019-03-25T07:56:03.211Z,4.23
2019-03-25T07:57:03.149Z,4.16
2019-03-25T07:58:03.054Z,4.22
2019-03-25T07:59:02.951Z,4.27
2019-03-25T08:00:13.237Z,4.23
2019-03-25T08:01:02.777Z,4.37
2019-03-25T08:02:02.698Z,4.27
2019-03-25T08:03:02.644Z,4.27
2019-03-25T08:04:02.519Z,4.30
2019-03-25T08:05:02.461Z,4.40
2019-03-25T08:06:02.404Z,4.44
2019-03-25T08:07:02.277Z,4.42
2019-03-25T08:08:02.170Z,4.45
2019-03-25T08:09:04.028Z,4.45
2019-03-25T08:10:02.007Z,4.52
2019-03-25T08:11:01.959Z,4.50
2019-03-25T08:12:01.848Z,4.45
2019-03-25T08:13:01.801Z,4.45
2019-03-25T08:14:01.660Z,4.48
2019-03-25T08:15:01.601Z,4.47
2019-03-25T08:16:03.385Z,4.58
2019-03-25T08:17:01.396Z,4.55
2019-03-25T08:18:01.311Z,4.59
2019-03-25T08:19:01.221Z,4.67
2019-03-25T08:20:01.135Z,4.88
2019-03-25T08:21:01.046Z,4.88
2019-03-25T08:22:00.959Z,4.86
2019-03-25T08:23:00.873Z,4.86
2019-03-25T08:24:00.813Z,4.85
2019-03-25T08:25:00.711Z,4.82
2019-03-25T08:26:00.622Z,4.86
2019-03-25T08:27:00.542Z,4.92
2019-03-25T08:28:00.629Z,4.82
2019-03-25T08:29:00.361Z,4.85
2019-03-25T08:30:00.370Z,4.85
2019-03-25T08:31:00.186Z,4.88
2019-03-25T08:32:00.111Z,4.85
2019-03-25T08:33:00.023Z,4.89
2019-03-25T08:33:59.936Z,4.86
2019-03-25T08:34:59.851Z,4.80
2019-03-25T08:35:59.763Z,4.78
2019-03-25T08:36:59.673Z,4.80
2019-03-25T08:37:59.586Z,4.78
2019-03-25T08:38:59.506Z,4.72
2019-03-25T08:39:59.436Z,4.75
2019-03-25T08:40:59.338Z,4.86
2019-03-25T08:41:59.248Z,4.73
2019-03-25T08:42:59.162Z,4.85
2019-03-25T08:43:59.073Z,4.84
2019-03-25T08:44:58.987Z,4.92
2019-03-25T08:45:58.900Z,5.02
2019-03-25T08:46:58.824Z,4.99
2019-03-25T08:47:58.740Z,4.94
2019-03-25T08:48:58.649Z,5.13
2019-03-25T08:49:58.564Z,5.17
2019-03-25T08:50:58.476Z,5.12
2019-03-25T08:51:58.399Z,5.07
2019-03-25T08:52:58.301Z,5.20
2019-03-25T08:53:58.213Z,5.22
2019-03-25T08:54:58.141Z,5.20
2019-03-25T08:55:58.050Z,5.22
2019-03-25T08:56:57.970Z,5.22
2019-03-25T08:57:57.889Z,5.28
2019-03-25T08:58:57.852Z,5.31
2019-03-25T08:59:57.906Z,5.43
2019-03-25T09:00:57.619Z,5.46
2019-03-25T09:01:57.539Z,5.57
2019-03-25T09:02:57.453Z,5.64
2019-03-25T09:03:57.394Z,5.60
2019-03-25T09:04:57.277Z,5.68
2019-03-25T09:05:59.346Z,5.61
2019-03-25T09:06:57.101Z,5.67
2019-03-25T09:07:57.015Z,5.68
2019-03-25T09:08:56.940Z,5.72
2019-03-25T09:09:56.851Z,5.58
2019-03-25T09:10:56.765Z,5.63
2019-03-25T09:11:56.677Z,5.60
2019-03-25T09:12:56.594Z,5.68
2019-03-25T09:13:56.515Z,5.58
2019-03-25T09:14:56.427Z,5.71
2019-03-25T09:15:56.530Z,5.71
2019-03-25T09:16:56.254Z,5.78
2019-03-25T09:17:56.165Z,5.85
2019-03-25T09:18:56.078Z,5.81
2019-03-25T09:19:56.015Z,5.83
2019-03-25T09:20:55.917Z,5.99
2019-03-25T09:21:55.828Z,6.12
2019-03-25T09:22:55.742Z,6.09
2019-03-25T09:23:55.653Z,5.94
2019-03-25T09:24:55.578Z,5.99
2019-03-25T09:25:55.491Z,6.04
2019-03-25T09:26:55.404Z,6.14
2019-03-25T09:27:55.319Z,6.56
2019-03-25T09:28:55.231Z,6.77
2019-03-25T09:29:55.156Z,6.91
2019-03-25T09:30:55.067Z,6.97
2019-03-25T09:31:54.979Z,6.98
2019-03-25T09:32:54.902Z,6.85
2019-03-25T09:33:54.804Z,6.89
2019-03-25T09:34:54.729Z,6.77
2019-03-25T09:35:54.701Z,6.76
2019-03-25T09:36:54.559Z,6.79
2019-03-25T09:37:54.468Z,6.84
2019-03-25T09:38:54.395Z,6.89
2019-03-25T09:39:54.306Z,6.98
2019-03-25T09:40:54.218Z,7.15
2019-03-25T09:41:54.130Z,7.27
2019-03-25T09:42:54.055Z,7.37
2019-03-25T09:43:53.972Z,7.49
2019-03-25T09:44:53.880Z,7.46
2019-03-25T09:45:53.794Z,7.52
2019-03-25T09:46:53.719Z,7.48
2019-03-25T09:47:53.633Z,7.39
2019-03-25T09:48:53.555Z,7.34
2019-03-25T09:49:53.474Z,7.32
2019-03-25T09:50:53.394Z,7.17
2019-03-25T09:51:53.295Z,7.03
2019-03-25T09:52:53.209Z,6.92
2019-03-25T09:53:53.148Z,6.80
2019-03-25T09:54:53.044Z,6.64
2019-03-25T09:55:52.957Z,6.67
2019-03-25T09:56:52.882Z,6.67
2019-03-25T09:57:52.795Z,6.70
2019-03-25T09:58:52.709Z,6.97
2019-03-25T09:59:52.623Z,7.03
2019-03-25T10:00:52.545Z,7.35
2019-03-25T10:01:52.457Z,7.39
2019-03-25T10:02:52.377Z,7.49
2019-03-25T10:03:52.283Z,7.50
2019-03-25T10:04:52.210Z,7.57
2019-03-25T10:05:52.122Z,7.68
2019-03-25T10:06:52.125Z,7.67
2019-03-25T10:07:51.958Z,7.72
2019-03-25T10:08:51.871Z,7.48
2019-03-25T10:09:51.784Z,7.48
2019-03-25T10:10:51.697Z,7.50
2019-03-25T10:11:51.622Z,7.50
2019-03-25T10:12:51.536Z,7.52
2019-03-25T10:13:51.447Z,7.48
2019-03-25T10:14:51.372Z,7.39
2019-03-25T10:15:51.284Z,7.30
2019-03-25T10:16:51.197Z,7.25
2019-03-25T10:17:51.123Z,7.17
2019-03-25T10:18:51.036Z,7.23
2019-03-25T10:19:50.948Z,7.24
2019-03-25T10:20:50.860Z,7.13
2019-03-25T10:21:50.789Z,7.32
2019-03-25T10:22:50.697Z,7.35
2019-03-25T10:23:50.627Z,7.24
2019-03-25T10:24:50.535Z,7.23
2019-03-25T10:25:50.448Z,7.31
2019-03-25T10:26:50.372Z,7.45
2019-03-25T10:27:50.273Z,7.61
2019-03-25T10:28:50.198Z,7.69
2019-03-25T10:29:50.113Z,7.75
2019-03-25T10:30:50.026Z,7.72
2019-03-25T10:31:49.949Z,7.83
2019-03-25T10:32:49.860Z,7.85
2019-03-25T10:33:49.775Z,8.00
2019-03-25T10:34:49.687Z,7.98
2019-03-25T10:35:49.610Z,8.05
2019-03-25T10:36:49.524Z,8.11
2019-03-25T10:37:49.437Z,8.22
2019-03-25T10:38:49.361Z,8.08
2019-03-25T10:39:49.275Z,8.11
2019-03-25T10:40:49.186Z,8.11
2019-03-25T10:41:49.126Z,8.05
2019-03-25T10:42:49.025Z,8.20
2019-03-25T10:43:48.936Z,8.12
2019-03-25T10:44:48.862Z,8.07
2019-03-25T10:45:48.774Z,8.05
2019-03-25T10:46:48.687Z,8.01
2019-03-25T10:47:48.612Z,7.85
2019-03-25T10:48:48.528Z,7.75
2019-03-25T10:49:48.440Z,7.60
2019-03-25T10:50:48.362Z,7.50
2019-03-25T10:51:48.276Z,7.50
2019-03-25T10:52:48.188Z,7.63
2019-03-25T10:53:48.113Z,7.69
2019-03-25T10:54:48.080Z,7.71
2019-03-25T10:55:47.950Z,7.89
2019-03-25T10:56:49.351Z,8.25
2019-03-25T10:57:47.777Z,8.38
2019-03-25T10:58:50.716Z,8.70
2019-03-25T10:59:47.602Z,9.01
2019-03-25T11:00:47.527Z,9.01
2019-03-25T11:01:47.438Z,9.36
2019-03-25T11:02:47.351Z,9.35
2019-03-25T11:03:47.279Z,9.14
2019-03-25T11:04:47.189Z,9.29
2019-03-25T11:05:47.114Z,9.28
2019-03-25T11:06:47.028Z,9.26
2019-03-25T11:07:46.939Z,8.98
2019-03-25T11:08:46.864Z,8.76
2019-03-25T11:09:46.779Z,8.45
2019-03-25T11:10:46.690Z,8.19
2019-03-25T11:11:46.618Z,8.22
2019-03-25T11:12:46.527Z,8.15
2019-03-25T11:13:46.453Z,8.10
2019-03-25T11:14:46.369Z,8.19
2019-03-25T11:15:46.279Z,8.02
2019-03-25T11:16:46.206Z,7.85
2019-03-25T11:17:46.115Z,7.74
2019-03-25T11:18:46.030Z,7.69
2019-03-25T11:19:45.955Z,7.58
2019-03-25T11:20:45.865Z,7.55
2019-03-25T11:21:45.779Z,7.42
2019-03-25T11:22:45.704Z,7.20
2019-03-25T11:23:45.615Z,6.88
2019-03-25T11:24:45.529Z,6.58
2019-03-25T11:25:45.454Z,6.44
2019-03-25T11:26:45.369Z,6.33
2019-03-25T11:27:54.091Z,6.27
2019-03-25T11:28:45.205Z,6.27
2019-03-25T11:29:45.130Z,6.22
2019-03-25T11:30:45.029Z,6.84
2019-03-25T11:31:44.942Z,7.24
2019-03-25T11:32:44.868Z,7.74
2019-03-25T11:33:44.783Z,8.34
2019-03-25T11:34:44.692Z,9.26
2019-03-25T11:35:44.617Z,9.60
2019-03-25T11:36:44.530Z,9.96
2019-03-25T11:37:44.443Z,10.55
2019-03-25T11:38:44.355Z,10.91
2019-03-25T11:39:44.280Z,11.43
2019-03-25T11:40:44.192Z,11.94
2019-03-25T11:41:44.109Z,12.68
2019-03-25T11:42:44.031Z,13.23
2019-03-25T11:43:43.943Z,13.42
2019-03-25T11:44:43.871Z,13.39
2019-03-25T11:45:43.783Z,13.78
2019-03-25T11:46:43.693Z,14.18
2019-03-25T11:47:43.622Z,14.25
2019-03-25T11:48:43.532Z,14.02
2019-03-25T11:49:44.583Z,14.21
2019-03-25T11:50:43.368Z,14.12
2019-03-25T11:51:43.294Z,13.01
2019-03-25T11:52:43.219Z,12.59
2019-03-25T11:53:43.131Z,12.93
2019-03-25T11:54:43.056Z,13.46
2019-03-25T11:55:42.969Z,13.73
2019-03-25T11:56:42.895Z,13.19
2019-03-25T11:57:42.821Z,11.72
2019-03-25T11:58:42.734Z,10.97
2019-03-25T11:59:42.657Z,10.59
2019-03-25T12:00:42.583Z,10.30
2019-03-25T12:01:42.495Z,9.93
2019-03-25T12:02:42.409Z,9.68
2019-03-25T12:03:42.334Z,9.50
2019-03-25T12:04:42.259Z,9.23
2019-03-25T12:05:42.170Z,9.39
2019-03-25T12:06:42.097Z,9.60
2019-03-25T12:07:42.009Z,10.41
2019-03-25T12:08:41.933Z,10.25
2019-03-25T12:09:41.847Z,9.89
2019-03-25T12:10:41.770Z,9.69
2019-03-25T12:11:41.684Z,9.64
2019-03-25T12:12:41.608Z,9.42
2019-03-25T12:13:41.521Z,9.40
2019-03-25T12:14:41.447Z,9.40
2019-03-25T12:15:41.361Z,9.42
2019-03-25T12:16:41.286Z,9.32
2019-03-25T12:17:41.197Z,9.31
2019-03-25T12:18:41.122Z,8.98
2019-03-25T12:19:41.035Z,8.84
2019-03-25T12:20:40.961Z,8.71
2019-03-25T12:21:40.873Z,8.50
2019-03-25T12:22:40.785Z,8.36
2019-03-25T12:23:40.711Z,8.28
2019-03-25T12:24:40.623Z,8.52
2019-03-25T12:25:40.564Z,9.32
2019-03-25T12:26:40.460Z,9.21
2019-03-25T12:27:40.616Z,8.95
2019-03-25T12:28:40.299Z,8.30
2019-03-25T12:29:40.212Z,8.12
2019-03-25T12:30:40.137Z,7.92
2019-03-25T12:31:40.052Z,7.63
2019-03-25T12:32:39.964Z,8.95
2019-03-25T12:33:39.887Z,10.20
2019-03-25T12:34:39.812Z,10.68
2019-03-25T12:35:39.723Z,11.58
2019-03-25T12:36:39.645Z,12.12
2019-03-25T12:37:39.549Z,11.86
2019-03-25T12:38:39.474Z,12.32
2019-03-25T12:39:39.386Z,12.01
2019-03-25T12:40:39.312Z,10.71
2019-03-25T12:41:39.225Z,9.91
2019-03-25T12:42:39.138Z,9.56
2019-03-25T12:43:39.062Z,9.29
2019-03-25T12:44:38.977Z,8.83
2019-03-25T12:45:38.919Z,8.59
2019-03-25T12:46:38.813Z,8.33
2019-03-25T12:47:38.737Z,8.26
2019-03-25T12:48:38.651Z,8.86
2019-03-25T12:49:38.562Z,10.04
2019-03-25T12:50:38.488Z,11.22
2019-03-25T12:51:38.401Z,11.95
2019-03-25T12:52:38.325Z,12.57
2019-03-25T12:53:38.246Z,13.11
2019-03-25T12:54:38.151Z,13.19
2019-03-25T12:55:38.075Z,13.54
2019-03-25T12:56:38.001Z,13.28
2019-03-25T12:57:37.913Z,13.32
2019-03-25T12:58:37.841Z,13.64
2019-03-25T12:59:41.527Z,14.07
2019-03-25T13:00:37.671Z,14.17
2019-03-25T13:01:37.590Z,13.87
2019-03-25T13:02:37.502Z,13.04
2019-03-25T13:03:37.427Z,12.38
2019-03-25T13:04:37.351Z,11.72
2019-03-25T13:05:37.265Z,11.17
2019-03-25T13:06:37.190Z,10.60
2019-03-25T13:07:37.102Z,10.41
2019-03-25T13:08:37.027Z,9.75
2019-03-25T13:09:36.943Z,9.47
2019-03-25T13:10:36.868Z,9.11
2019-03-25T13:11:36.779Z,8.71
2019-03-25T13:12:36.706Z,8.19
2019-03-25T13:13:36.631Z,8.18
2019-03-25T13:14:36.542Z,8.19
2019-03-25T13:15:36.461Z,8.07